Data for 12/03/2009

Time Sea-Level Adjusted Pressure Absolute Pressure Temperature Relative Humidity Dew Point   
(mb) (inHg) (mb) (inHg) (C) (F) (%) (C) (F)
00:05 1024 30.24 853 25.19 -16.1 3 84 -18.2 -0.7
00:10 1024 30.24 853 25.19 -15.8 3.6 83 -18 -0.5
00:15 1024 30.24 853 25.19 -15.8 3.5 83 -18.1 -0.6
00:20 1024 30.24 853 25.19 -15.9 3.4 83 -18.1 -0.6
00:25 1024 30.24 853 25.19 -15.8 3.5 84 -18 -0.4
00:30 1024 30.24 853 25.19 -15.6 4 83 -17.8 0
00:35 1024 30.24 853 25.19 -15.2 4.7 82 -17.6 0.4
00:40 1024 30.24 853 25.19 -15.3 4.5 83 -17.6 0.3
00:45 1024 30.24 853 25.19 -15.6 3.9 83 -17.9 -0.2
00:50 1024 30.24 853 25.19 -15.5 4 82 -17.9 -0.3
00:55 1024 30.24 853 25.19 -15.5 4.1 84 -17.7 0.1
01:00 1024 30.24 853 25.19 -15.4 4.4 81 -17.9 -0.2
01:05 1024 30.24 853 25.19 -15.6 3.9 82 -18 -0.4
01:10 1024 30.24 853 25.19 -15.7 3.7 83 -18 -0.5
01:15 1024 30.24 853 25.19 -15.8 3.6 82 -18.2 -0.8
01:20 1024 30.24 853 25.19 -15.8 3.5 83 -18.2 -0.7
01:25 1024 30.24 853 25.19 -15.9 3.4 82 -18.4 -1
01:30 1024 30.24 853 25.19 -16 3.1 83 -18.2 -0.8
01:35 1024 30.24 853 25.19 -16.1 3.1 84 -18.2 -0.8
01:40 1024 30.24 853 25.19 -16 3.2 83 -18.3 -0.9
01:45 1024 30.24 853 25.19 -16.1 3.1 83 -18.4 -1.1
01:50 1024 30.24 853 25.19 -16.1 3 83 -18.3 -1
01:55 1024 30.24 853 25.19 -15.9 3.3 84 -18.1 -0.6
02:00 1024 30.24 853 25.19 -15.7 3.8 82 -18 -0.5
02:05 1024 30.24 853 25.19 -15.7 3.8 83 -17.9 -0.2
02:10 1024 30.24 853 25.19 -15.5 4.1 85 -17.6 0.4
02:15 1024 30.24 853 25.19 -15.3 4.4 83 -17.5 0.4
02:20 1024 30.24 853 25.19 -15.4 4.3 84 -17.6 0.4
02:25 1024 30.24 853 25.19 -15.4 4.3 83 -17.6 0.3
02:30 1024 30.24 853 25.19 -15.4 4.3 84 -17.6 0.4
02:35 1024 30.24 853 25.19 -15.3 4.5 82 -17.6 0.3
02:40 1024 30.24 853 25.19 -15.4 4.3 83 -17.6 0.3
02:45 1024 30.24 853 25.19 -15.5 4.1 84 -17.7 0.2
02:50 1024 30.24 853 25.19 -15.5 4.2 84 -17.6 0.3
02:55 1024 30.24 853 25.19 -15.3 4.5 84 -17.4 0.7
03:00 1024 30.24 853 25.19 -14.9 5.1 85 -16.9 1.6
03:05 1024 30.24 853 25.19 -14.3 6.2 81 -16.9 1.6
03:10 1024 30.24 853 25.19 -14.5 6 81 -17 1.4
03:15 1024 30.24 853 25.19 -14.8 5.3 82 -17.3 0.9
03:20 1024 30.24 853 25.19 -15 5 82 -17.4 0.7
03:25 1024 30.24 853 25.19 -15.1 4.9 83 -17.3 0.9
03:30 1024 30.24 853 25.19 -15 4.9 85 -17.1 1.2
03:35 1024 30.24 853 25.19 -14.9 5.1 85 -16.9 1.5
03:40 1024 30.24 853 25.19 -14.8 5.4 84 -16.9 1.6
03:45 1024 30.24 853 25.19 -14.7 5.5 84 -16.9 1.6
03:50 1024 30.24 853 25.19 -14.8 5.4 83 -17 1.3
03:55 1024 30.24 853 25.19 -14.9 5.2 84 -17 1.4
04:00 1024 30.24 853 25.19 -14.9 5.2 85 -16.9 1.5
04:05 1024 30.24 853 25.19 -14.9 5.2 85 -16.9 1.6
04:10 1024 30.24 853 25.19 -14.8 5.3 86 -16.7 1.9
04:15 1024 30.24 853 25.19 -14.6 5.7 85 -16.7 2
04:20 1024 30.24 853 25.19 -14.4 6.1 84 -16.4 2.4
04:25 1024 30.24 853 25.19 -14.2 6.4 83 -16.5 2.3
04:30 1024 30.24 853 25.19 -14.3 6.4 84 -16.5 2.4
04:35 1024 30.24 853 25.19 -14.2 6.5 83 -16.4 2.5
04:40 1024 30.24 853 25.19 -14.1 6.6 83 -16.4 2.6
04:45 1024 30.24 853 25.19 -14.1 6.6 83 -16.4 2.5
04:50 1024 30.24 853 25.19 -14 6.8 82 -16.4 2.5
04:55 1024 30.24 853 25.19 -13.8 7.1 82 -16.3 2.6
05:00 1024 30.24 853 25.19 -13.9 7 82 -16.4 2.5
05:05 1024 30.24 853 25.19 -14 6.9 82 -16.4 2.5
05:10 1024 30.24 853 25.19 -14.1 6.6 83 -16.5 2.4
05:15 1024 30.24 853 25.19 -14.2 6.4 83 -16.4 2.4
05:20 1024 30.24 853 25.19 -14.3 6.3 83 -16.6 2.2
05:25 1024 30.24 853 25.19 -14.4 6.1 84 -16.5 2.2
05:30 1024 30.24 853 25.19 -14.5 5.9 85 -16.5 2.3
05:35 1024 30.24 853 25.19 -14.5 5.9 85 -16.5 2.4
05:40 1024 30.24 853 25.19 -14.5 6 85 -16.4 2.5
05:45 1024 30.24 853 25.19 -14.3 6.2 85 -16.4 2.5
05:50 1024 30.24 853 25.19 -14.1 6.6 83 -16.4 2.5
05:55 1024 30.24 853 25.19 -14.1 6.6 82 -16.5 2.4
06:00 1024 30.24 853 25.19 -14.1 6.6 82 -16.5 2.4
06:05 1024 30.24 853 25.19 -14.2 6.5 82 -16.6 2.1
06:10 1024 30.24 853 25.19 -14.2 6.5 81 -16.7 1.9
06:15 1024 30.24 853 25.19 -14.2 6.4 81 -16.8 1.8
06:20 1024 30.24 853 25.19 -14.4 6.1 81 -16.9 1.5
06:25 1024 30.24 853 25.19 -14.5 6 81 -17 1.4
06:30 1024 30.24 853 25.19 -14.6 5.8 82 -17 1.4
06:35 1024 30.24 853 25.19 -14.7 5.6 82 -17.1 1.2
06:40 1024 30.24 853 25.19 -14.9 5.1 83 -17.3 0.9
06:45 1024 30.24 853 25.19 -15.3 4.5 85 -17.3 0.9
06:50 1024 30.24 853 25.19 -15.3 4.4 85 -17.2 1
06:55 1024 30.24 853 25.19 -15.3 4.4 86 -17.2 1
07:00 1024 30.24 853 25.19 -15.2 4.7 85 -17.1 1.1
07:05 1024 30.24 853 25.19 -15.1 4.9 83 -17.3 0.9
07:10 1024 30.24 853 25.19 -15.1 4.8 83 -17.5 0.6
07:15 1024 30.24 853 25.19 -15 5 82 -17.4 0.7
07:20 1024 30.24 853 25.19 -14.9 5.2 79 -17.8 -0
07:25 1024 30.24 853 25.19 -14.8 5.3 78 -17.8 -0
07:30 1024 30.24 853 25.19 -15.2 4.7 81 -17.8 -0
07:35 1024 30.24 853 25.19 -15.4 4.2 84 -17.5 0.5
07:40 1024 30.24 853 25.19 -15.4 4.3 83 -17.6 0.3
07:45 1024 30.24 853 25.19 -15.6 3.9 85 -17.6 0.4
07:50 1024 30.24 853 25.19 -15.6 3.9 87 -17.4 0.7
07:55 1024 30.24 853 25.19 -15.5 4 87 -17.2 1
08:00 1024 30.24 853 25.19 -15.5 4.2 87 -17.2 1.1
08:05 1024 30.24 853 25.19 -15.4 4.3 87 -17.1 1.2
08:10 1024 30.24 853 25.19 -15 5 80 -17.8 -0
08:15 1024 30.24 853 25.19 -14.6 5.7 79 -17.5 0.5
08:20 1024 30.24 854 25.22 -14.4 6.2 76 -17.7 0.2
08:25 1024 30.24 853 25.19 -14.2 6.5 76 -17.5 0.5
08:30 1024 30.24 854 25.22 -13.9 7 74 -17.5 0.4
08:35 1024 30.24 854 25.22 -14.1 6.6 74 -17.8 -0
08:40 1024 30.24 854 25.22 -14.4 6.2 72 -18.3 -1
08:45 1025 30.27 854 25.22 -14.1 6.7 71 -18.2 -0.8
08:50 1025 30.27 854 25.22 -14.1 6.6 73 -18 -0.5
08:55 1025 30.27 854 25.22 -14.3 6.3 74 -18 -0.4
09:00 1025 30.27 854 25.22 -14 6.8 72 -18 -0.4
09:05 1025 30.27 854 25.22 -13.8 7.2 72 -17.8 0
09:10 1025 30.27 854 25.22 -13.7 7.3 71 -18 -0.3
09:15 1025 30.27 854 25.22 -13.4 7.9 68 -18.2 -0.7
09:20 1025 30.27 854 25.22 -13.3 8.1 66 -18.3 -1
09:25 1025 30.27 854 25.22 -13.3 8.1 68 -18 -0.4
09:30 1025 30.27 854 25.22 -13.4 7.9 66 -18.5 -1.3
09:35 1025 30.27 854 25.22 -13.5 7.8 67 -18.3 -1
09:40 1025 30.27 854 25.22 -13.2 8.2 67 -18.1 -0.5
09:45 1025 30.27 854 25.22 -13.4 8 66 -18.5 -1.3
09:50 1025 30.27 854 25.22 -13.1 8.4 63 -18.7 -1.7
09:55 1025 30.27 854 25.22 -12.6 9.2 61 -18.7 -1.7
10:00 1025 30.27 854 25.22 -12.5 9.4 62 -18.5 -1.3
10:05 1025 30.27 854 25.22 -12.6 9.4 62 -18.5 -1.3
10:10 1025 30.27 854 25.22 -12.5 9.5 63 -18.1 -0.6
10:15 1025 30.27 854 25.22 -12.2 10 61 -18.4 -1.1
10:20 1025 30.27 854 25.22 -12 10.4 62 -18 -0.4
10:25 1025 30.27 854 25.22 -12 10.4 63 -17.7 0.1
10:30 1025 30.27 854 25.22 -12.7 9.2 65 -18 -0.4
10:35 1025 30.27 854 25.22 -12.9 8.8 66 -18 -0.4
10:40 1025 30.27 854 25.22 -12.2 10.1 64 -17.7 0.1
10:45 1025 30.27 854 25.22 -11.2 11.9 59 -17.7 0.1
10:50 1025 30.27 854 25.22 -10.7 12.7 59 -17.3 0.8
10:55 1025 30.27 854 25.22 -10.8 12.5 59 -17.4 0.6
11:00 1025 30.27 854 25.22 -10.9 12.4 60 -17.3 0.9
11:05 1025 30.27 854 25.22 -11.1 11.9 59 -17.7 0.1
11:10 1024 30.24 854 25.22 -11.3 11.6 58 -18 -0.4
11:15 1024 30.24 854 25.22 -11.6 11 58 -18.3 -0.9
11:20 1024 30.24 854 25.22 -11.8 10.9 59 -18.3 -0.9
11:25 1024 30.24 854 25.22 -11.7 10.9 61 -17.9 -0.2
11:30 1024 30.24 854 25.22 -11.7 10.9 59 -18.2 -0.7
11:35 1024 30.24 854 25.22 -11.5 11.3 59 -18 -0.4
11:40 1024 30.24 853 25.19 -11.4 11.5 61 -17.5 0.5
11:45 1024 30.24 853 25.19 -11 12.2 59 -17.6 0.3
11:50 1024 30.24 853 25.19 -11.1 12.1 58 -17.7 0.1
11:55 1024 30.24 853 25.19 -10.8 12.6 57 -17.7 0.2
12:00 1024 30.24 853 25.19 -10.6 13 56 -17.8 0
12:05 1024 30.24 853 25.19 -10.8 12.6 58 -17.6 0.3
12:10 1024 30.24 853 25.19 -10.9 12.4 58 -17.5 0.5
12:15 1024 30.24 853 25.19 -10.8 12.5 54 -18.3 -1
12:20 1024 30.24 853 25.19 -11.2 11.9 56 -18.4 -1.2
12:25 1024 30.24 853 25.19 -11.1 12.1 57 -18 -0.3
12:30 1024 30.24 853 25.19 -10.6 12.9 57 -17.7 0.2
12:35 1024 30.24 853 25.19 -10.8 12.7 57 -17.7 0.1
12:40 1024 30.24 853 25.19 -10.5 13.2 56 -17.6 0.4
12:45 1024 30.24 853 25.19 -10 14.1 53 -17.9 -0.3
12:50 1023 30.21 853 25.19 -9.4 15.2 53 -17.2 1
12:55 1023 30.21 853 25.19 -9.3 15.3 52 -17.5 0.6
13:00 1023 30.21 853 25.19 -8.5 16.7 50 -17.1 1.3
13:05 1023 30.21 853 25.19 -8.3 17.1 52 -16.5 2.2
13:10 1023 30.21 853 25.19 -8 17.6 50 -16.8 1.8
13:15 1023 30.21 853 25.19 -8.1 17.5 49 -17 1.5
13:20 1023 30.21 853 25.19 -8 17.6 50 -16.6 2
13:25 1023 30.21 853 25.19 -8.3 17 49 -17.2 1
13:30 1023 30.21 853 25.19 -8.9 16 51 -17.3 0.8
13:35 1023 30.21 853 25.19 -9 15.8 52 -17.2 1
13:40 1023 30.21 853 25.19 -8.8 16.1 50 -17.3 0.8
13:45 1023 30.21 853 25.19 -8.6 16.6 52 -16.8 1.8
13:50 1023 30.21 853 25.19 -8.4 16.9 52 -16.6 2.1
13:55 1023 30.21 853 25.19 -8.9 16 51 -17.4 0.7
14:00 1023 30.21 853 25.19 -9.3 15.3 53 -17.2 1.1
14:05 1023 30.21 853 25.19 -9.8 14.4 54 -17.4 0.7
14:10 1023 30.21 853 25.19 -9.8 14.4 53 -17.7 0.1
14:15 1023 30.21 853 25.19 -9.7 14.5 52 -17.8 -0.1
14:20 1023 30.21 853 25.19 -9.3 15.2 52 -17.6 0.3
14:25 1023 30.21 853 25.19 -8.9 15.9 51 -17.4 0.6
14:30 1023 30.21 853 25.19 -9 15.9 50 -17.7 0.2
14:35 1023 30.21 853 25.19 -9.5 15 52 -17.5 0.5
14:40 1023 30.21 853 25.19 -9.6 14.8 54 -17.2 1.1
14:45 1023 30.21 853 25.19 -9.6 14.7 54 -17.2 1
14:50 1023 30.21 853 25.19 -9.7 14.6 55 -17.1 1.3
14:55 1023 30.21 853 25.19 -9.6 14.7 55 -17 1.4
15:00 1023 30.21 853 25.19 -9.7 14.5 55 -17.1 1.3
15:05 1023 30.21 852 25.16 -10 14.1 58 -16.8 1.7
15:10 1023 30.21 852 25.16 -9.9 14.2 58 -16.7 1.9
15:15 1023 30.21 853 25.19 -9.8 14.5 57 -16.8 1.7
15:20 1023 30.21 853 25.19 -10.1 13.9 60 -16.5 2.2
15:25 1023 30.21 853 25.19 -10.4 13.3 59 -16.9 1.6
15:30 1023 30.21 853 25.19 -10.2 13.6 59 -16.8 1.7
15:35 1023 30.21 853 25.19 -10 14 58 -16.7 1.9
15:40 1023 30.21 853 25.19 -10.3 13.4 58 -17.1 1.2
15:45 1023 30.21 853 25.19 -10.5 13.2 58 -17.1 1.2
15:50 1023 30.21 853 25.19 -10.3 13.5 59 -16.9 1.6
15:55 1023 30.21 853 25.19 -10.2 13.7 57 -17.1 1.2
16:00 1023 30.21 853 25.19 -10.1 13.8 58 -16.9 1.5
16:05 1023 30.21 853 25.19 -10 13.9 57 -17.1 1.2
16:10 1023 30.21 853 25.19 -10.3 13.4 57 -17.4 0.6
16:15 1023 30.21 852 25.16 -10.5 13 57 -17.6 0.4
16:20 1023 30.21 852 25.16 -11.2 11.9 58 -18 -0.3
16:25 1023 30.21 852 25.16 -10.8 12.5 58 -17.5 0.5
16:30 1023 30.21 853 25.19 -10.6 12.8 58 -17.5 0.5
16:35 1023 30.21 853 25.19 -11.1 12.1 59 -17.6 0.4
16:40 1023 30.21 852 25.16 -11.5 11.4 61 -17.6 0.3
16:45 1023 30.21 852 25.16 -11.6 11.1 63 -17.4 0.7
16:50 1023 30.21 852 25.16 -11.8 10.8 63 -17.4 0.6
16:55 1023 30.21 852 25.16 -12 10.4 65 -17.3 0.9
17:00 1023 30.21 852 25.16 -12.2 10.1 65 -17.4 0.6
17:05 1023 30.21 852 25.16 -12.3 9.8 66 -17.3 0.8
17:10 1023 30.21 852 25.16 -12.7 9.2 67 -17.6 0.3
17:15 1023 30.21 852 25.16 -13.2 8.3 69 -17.7 0.2
17:20 1023 30.21 852 25.16 -13.1 8.3 69 -17.8 0
17:25 1023 30.21 852 25.16 -13.1 8.4 69 -17.8 0
17:30 1023 30.21 852 25.16 -13.1 8.4 69 -17.6 0.3
17:35 1023 30.21 852 25.16 -13.6 7.6 72 -17.6 0.3
17:40 1023 30.21 852 25.16 -14.1 6.6 75 -17.7 0.2
17:45 1023 30.21 852 25.16 -14.3 6.3 76 -17.6 0.3
17:50 1023 30.21 852 25.16 -14.1 6.6 75 -17.7 0.1
17:55 1023 30.21 852 25.16 -14.2 6.4 75 -17.8 -0
18:00 1023 30.21 852 25.16 -14.2 6.5 75 -17.6 0.3
18:05 1023 30.21 852 25.16 -14.7 5.6 77 -17.8 -0.1
18:10 1023 30.21 852 25.16 -15 5 78 -18.1 -0.6
18:15 1023 30.21 852 25.16 -15.3 4.5 79 -18.1 -0.5
18:20 1023 30.21 852 25.16 -15.3 4.4 78 -18.3 -1
18:25 1023 30.21 852 25.16 -15.9 3.5 78 -18.8 -1.8
18:30 1022 30.18 852 25.16 -15.8 3.6 78 -18.8 -1.9
18:35 1023 30.21 852 25.16 -15.7 3.7 79 -18.6 -1.5
18:40 1023 30.21 852 25.16 -15.3 4.4 78 -18.4 -1
18:45 1022 30.18 852 25.16 -14.8 5.3 74 -18.5 -1.4
18:50 1022 30.18 852 25.16 -14.7 5.5 74 -18.3 -1
18:55 1022 30.18 852 25.16 -15.1 4.9 76 -18.4 -1.2
19:00 1022 30.18 851 25.13 -15.5 4.2 78 -18.4 -1.2
19:05 1022 30.18 851 25.13 -15.4 4.2 77 -18.6 -1.4
19:10 1022 30.18 851 25.13 -15.2 4.7 76 -18.6 -1.4
19:15 1022 30.18 851 25.13 -15.3 4.5 76 -18.6 -1.4
19:20 1022 30.18 851 25.13 -15.2 4.7 77 -18.4 -1.1
19:25 1022 30.18 851 25.13 -15.3 4.4 78 -18.4 -1.2
19:30 1022 30.18 851 25.13 -15.5 4.1 78 -18.5 -1.3
19:35 1022 30.18 851 25.13 -15.6 3.9 78 -18.6 -1.5
19:40 1022 30.18 851 25.13 -15.6 4 78 -18.6 -1.4
19:45 1022 30.18 851 25.13 -15.4 4.3 77 -18.6 -1.4
19:50 1022 30.18 851 25.13 -15.3 4.4 76 -18.6 -1.5
19:55 1022 30.18 851 25.13 -15.2 4.6 75 -18.6 -1.5
20:00 1022 30.18 851 25.13 -15 5 75 -18.5 -1.3
20:05 1022 30.18 851 25.13 -15.1 4.8 75 -18.6 -1.5
20:10 1022 30.18 851 25.13 -15 4.9 75 -18.6 -1.5
20:15 1022 30.18 851 25.13 -15 5.1 74 -18.6 -1.4
20:20 1021 30.15 851 25.13 -14.9 5.1 74 -18.6 -1.5
20:25 1021 30.15 851 25.13 -14.9 5.1 73 -18.7 -1.6
20:30 1021 30.15 851 25.13 -14.8 5.3 74 -18.6 -1.4
20:35 1021 30.15 851 25.13 -15 5 74 -18.7 -1.7
20:40 1021 30.15 851 25.13 -15 4.9 74 -18.7 -1.7
20:45 1021 30.15 851 25.13 -14.9 5.1 74 -18.6 -1.6
20:50 1021 30.15 850 25.1 -14.9 5.3 73 -18.7 -1.6
20:55 1021 30.15 850 25.1 -15.4 4.2 75 -18.8 -1.9
21:00 1021 30.15 850 25.1 -15.5 4 75 -19 -2.2
21:05 1021 30.15 850 25.1 -15.4 4.2 75 -18.9 -2.1
21:10 1021 30.15 850 25.1 -15.5 4.2 75 -18.9 -2.1
21:15 1021 30.15 850 25.1 -15.4 4.4 74 -19 -2.1
21:20 1021 30.15 850 25.1 -15.9 3.4 77 -19 -2.2
21:25 1021 30.15 850 25.1 -15.5 4.1 75 -18.9 -2.1
21:30 1021 30.15 850 25.1 -15 4.9 73 -18.8 -1.9
21:35 1021 30.15 850 25.1 -14.9 5.1 73 -18.8 -1.8
21:40 1020 30.12 850 25.1 -14.8 5.3 73 -18.7 -1.7
21:45 1020 30.12 850 25.1 -14.9 5.2 72 -18.8 -1.9
21:50 1020 30.12 850 25.1 -15.3 4.4 74 -19 -2.1
21:55 1020 30.12 850 25.1 -15.3 4.5 74 -18.9 -2
22:00 1020 30.12 850 25.1 -15.7 3.8 76 -19 -2.3
22:05 1020 30.12 849 25.07 -15.9 3.4 77 -19.1 -2.3
22:10 1020 30.12 849 25.07 -16 3.3 77 -19.2 -2.5
22:15 1020 30.12 849 25.07 -16.1 3.1 78 -19.1 -2.4
22:20 1020 30.12 849 25.07 -15.8 3.5 75 -19.3 -2.7
22:25 1020 30.12 849 25.07 -16 3.2 76 -19.3 -2.8
22:30 1020 30.12 849 25.07 -16.1 3 76 -19.4 -2.9
22:35 1020 30.12 849 25.07 -16 3.2 77 -19.2 -2.6
22:40 1020 30.12 849 25.07 -15.9 3.4 77 -19.1 -2.4
22:45 1020 30.12 849 25.07 -15.8 3.6 76 -19 -2.2
22:50 1020 30.12 849 25.07 -15.2 4.6 73 -19 -2.2
22:55 1020 30.12 849 25.07 -15.2 4.6 72 -19.2 -2.6
23:00 1020 30.12 849 25.07 -15.3 4.4 74 -19 -2.3
23:05 1020 30.12 849 25.07 -15.3 4.4 72 -19.2 -2.6
23:10 1020 30.12 849 25.07 -15.8 3.6 76 -19.1 -2.4
23:15 1020 30.12 849 25.07 -14.9 5.1 72 -18.9 -2
23:20 1020 30.12 849 25.07 -15.1 4.8 72 -19 -2.2
23:25 1020 30.12 849 25.07 -15.4 4.2 73 -19.2 -2.6
23:30 1020 30.12 849 25.07 -15.3 4.5 73 -19.2 -2.5
23:35 1020 30.12 849 25.07 -15.5 4.2 74 -19.1 -2.3
23:40 1020 30.12 849 25.07 -15.6 4 76 -18.9 -2.1
23:45 1020 30.12 849 25.07 -15.5 4.2 75 -18.9 -2.1
23:50 1020 30.12 849 25.07 -15.4 4.2 75 -19 -2.2
23:55 1020 30.12 849 25.07 -15.3 4.5 73 -19.1 -2.4
24:00 1020 30.12 849 25.07 -15.7 3.8 76 -19 -2.1